Weather at London Heathrow Airport

Public forecast

Using degrees Celsius for public forecast. Weather courtesy of forecast.io.

Current aviation weather report (METAR) for London Heathrow Airport

Retrieved 2021/07/28 23:50 UTC (25 minutes ago):

EGLL 282350Z AUTO 23009KT 9999 NCD 13/11 Q1008 NOSIG

Aviation forecast (TAF) for London Heathrow Airport

Retrieved 2021-07-29 00:00 UTC (15 minutes ago):

TAF EGLL 282300Z 2900/3006 24010KT 9999 FEW030 BECMG 2922/3001 15008KT TEMPO 2923/3006 7000 RA PROB30 TEMPO 3001/3006 4000 +RA BKN010